createdAt,value
2024-02-07T00:02:10.888Z,5.61
2024-02-07T00:04:39.904Z,5.92
2024-02-07T00:07:08.779Z,6.21
2024-02-07T00:09:37.766Z,6.36
2024-02-07T00:12:06.653Z,6.56
2024-02-07T00:14:35.156Z,6.76
2024-02-07T00:17:04.134Z,6.87
2024-02-07T00:19:32.681Z,6.99
2024-02-07T00:22:01.360Z,7.06
2024-02-07T00:24:29.890Z,7.11
2024-02-07T00:26:58.603Z,7.13
2024-02-07T00:29:27.253Z,7.22
2024-02-07T00:31:55.725Z,7.27
2024-02-07T00:34:24.398Z,7.29
2024-02-07T00:36:53.010Z,7.30
2024-02-07T00:39:21.508Z,7.24
2024-02-07T00:41:50.603Z,7.07
2024-02-07T00:44:19.175Z,6.80
2024-02-07T00:46:47.696Z,6.56
2024-02-07T00:49:16.233Z,6.45
2024-02-07T00:51:44.757Z,6.36
2024-02-07T00:54:13.276Z,6.18
2024-02-07T00:56:41.832Z,5.99
2024-02-07T00:59:10.653Z,5.89
2024-02-07T01:01:39.250Z,5.78
2024-02-07T01:04:07.706Z,5.70
2024-02-07T01:06:36.239Z,5.61
2024-02-07T01:09:04.744Z,5.58
2024-02-07T01:11:33.372Z,5.54
2024-02-07T01:14:01.880Z,5.49
2024-02-07T01:16:30.411Z,5.40
2024-02-07T01:18:58.994Z,5.29
2024-02-07T01:21:27.870Z,5.19
2024-02-07T01:23:56.575Z,5.10
2024-02-07T01:26:25.312Z,5.06
2024-02-07T01:28:53.835Z,5.05
2024-02-07T01:31:23.249Z,5.01
2024-02-07T01:33:51.910Z,4.89
2024-02-07T01:36:22.432Z,4.77
2024-02-07T01:38:51.236Z,4.65
2024-02-07T01:41:42.683Z,4.55
2024-02-07T01:44:11.524Z,4.47
2024-02-07T01:46:40.041Z,4.45
2024-02-07T01:49:08.804Z,4.51
2024-02-07T01:51:37.776Z,4.64
2024-02-07T01:54:06.510Z,4.75
2024-02-07T01:56:35.692Z,4.80
2024-02-07T01:59:07.047Z,4.84
2024-02-07T02:01:38.142Z,4.87
2024-02-07T02:04:06.927Z,4.91
2024-02-07T02:06:35.624Z,4.89
2024-02-07T02:09:06.581Z,4.84
2024-02-07T02:11:39.461Z,4.77
2024-02-07T02:14:09.610Z,4.72
2024-02-07T02:16:38.672Z,4.66
2024-02-07T02:19:07.402Z,4.55
2024-02-07T02:22:05.334Z,4.49
2024-02-07T02:24:58.986Z,4.48
2024-02-07T02:27:39.627Z,4.46
2024-02-07T02:30:23.108Z,4.47
2024-02-07T02:32:52.902Z,4.46
2024-02-07T02:35:23.931Z,4.41
2024-02-07T02:37:52.993Z,4.37
2024-02-07T02:40:21.860Z,4.30
2024-02-07T02:42:50.434Z,4.26
2024-02-07T02:45:19.329Z,4.23
2024-02-07T02:47:47.956Z,4.20
2024-02-07T02:50:21.659Z,4.19
2024-02-07T02:52:50.298Z,4.14
2024-02-07T02:55:19.334Z,4.01
2024-02-07T02:57:48.426Z,3.86
2024-02-07T03:00:21.382Z,3.76
2024-02-07T03:02:49.860Z,3.66
2024-02-07T03:05:37.279Z,3.58
2024-02-07T03:08:17.486Z,3.42
2024-02-07T03:10:46.457Z,3.29
2024-02-07T03:13:15.091Z,3.17
2024-02-07T03:15:44.912Z,3.05
2024-02-07T03:18:14.432Z,2.98
2024-02-07T03:20:43.232Z,2.95
2024-02-07T03:23:11.933Z,2.90
2024-02-07T03:25:40.538Z,2.82
2024-02-07T03:28:11.960Z,2.75
2024-02-07T03:30:40.495Z,2.71
2024-02-07T03:33:09.105Z,2.71
2024-02-07T03:35:38.723Z,2.74
2024-02-07T03:38:07.331Z,2.76
2024-02-07T03:40:35.826Z,2.82
2024-02-07T03:43:04.794Z,2.90
2024-02-07T03:45:34.911Z,3.00
2024-02-07T03:48:06.040Z,3.14
2024-02-07T03:50:34.640Z,3.28
2024-02-07T03:53:05.484Z,3.47
2024-02-07T03:55:34.033Z,3.72
2024-02-07T03:58:03.173Z,3.89
2024-02-07T04:00:31.522Z,4.03
2024-02-07T04:03:00.037Z,4.09
2024-02-07T04:05:29.749Z,4.14
2024-02-07T04:07:59.054Z,4.15
2024-02-07T04:10:27.750Z,4.15
2024-02-07T04:12:56.198Z,4.09
2024-02-07T04:15:43.481Z,3.99
2024-02-07T04:18:31.692Z,3.93
2024-02-07T04:21:18.576Z,3.88
2024-02-07T04:24:05.806Z,3.86
2024-02-07T04:26:55.621Z,3.87
2024-02-07T04:29:42.705Z,3.90
2024-02-07T04:32:29.767Z,3.94
2024-02-07T04:35:17.168Z,3.92
2024-02-07T04:38:04.251Z,3.85
2024-02-07T04:40:51.397Z,3.77
2024-02-07T04:43:38.978Z,3.69
2024-02-07T04:46:26.069Z,3.64
2024-02-07T04:49:13.282Z,3.53
2024-02-07T04:52:00.637Z,3.36
2024-02-07T04:54:47.901Z,3.20
2024-02-07T04:57:35.005Z,3.07
2024-02-07T05:00:21.990Z,3.01
2024-02-07T05:03:09.316Z,3.01
2024-02-07T05:05:56.626Z,3.04
2024-02-07T05:08:43.585Z,3.11
2024-02-07T05:11:30.671Z,3.15
2024-02-07T05:14:17.622Z,3.20
2024-02-07T05:16:47.502Z,3.21
2024-02-07T05:19:16.090Z,3.23
2024-02-07T05:21:44.572Z,3.28
2024-02-07T05:24:13.103Z,3.33
2024-02-07T05:26:41.581Z,3.41
2024-02-07T05:29:13.739Z,3.53
2024-02-07T05:31:42.175Z,3.64
2024-02-07T05:34:10.843Z,3.71
2024-02-07T05:36:39.999Z,3.78
2024-02-07T05:39:08.482Z,3.89
2024-02-07T05:41:37.191Z,4.02
2024-02-07T05:44:05.649Z,4.10
2024-02-07T05:46:34.064Z,4.14
2024-02-07T05:49:02.413Z,4.12
2024-02-07T05:51:31.048Z,4.13
2024-02-07T05:53:59.359Z,4.14
2024-02-07T05:56:27.737Z,4.20
2024-02-07T05:58:56.136Z,4.21
2024-02-07T06:01:24.991Z,4.19
2024-02-07T06:03:54.694Z,4.18
2024-02-07T06:06:31.539Z,4.19
2024-02-07T06:09:00.399Z,4.23
2024-02-07T06:11:34.128Z,4.24
2024-02-07T06:14:04.576Z,4.29
2024-02-07T06:16:33.813Z,4.32
2024-02-07T06:19:04.176Z,4.36
2024-02-07T06:21:32.741Z,4.41
2024-02-07T06:24:01.433Z,4.47
2024-02-07T06:26:29.914Z,4.55
2024-02-07T06:28:58.498Z,4.65
2024-02-07T06:31:27.022Z,4.73
2024-02-07T06:33:55.527Z,4.82
2024-02-07T06:36:24.047Z,4.88
2024-02-07T06:38:52.534Z,4.92
2024-02-07T06:41:21.209Z,5.01
2024-02-07T06:43:49.768Z,5.10
2024-02-07T06:46:18.404Z,5.24
2024-02-07T06:48:46.934Z,5.38
2024-02-07T06:51:15.759Z,5.57
2024-02-07T06:53:44.237Z,5.83
2024-02-07T06:56:12.756Z,6.12
2024-02-07T06:58:41.372Z,6.34
2024-02-07T07:01:10.025Z,6.56
2024-02-07T07:03:38.628Z,6.74
2024-02-07T07:06:07.689Z,6.91
2024-02-07T07:08:36.256Z,7.05
2024-02-07T07:11:06.151Z,7.10
2024-02-07T07:13:34.688Z,7.06
2024-02-07T07:16:03.232Z,7.09
2024-02-07T07:18:31.965Z,7.15
2024-02-07T07:21:00.419Z,7.25
2024-02-07T07:23:29.080Z,7.35
2024-02-07T07:25:57.598Z,7.48
2024-02-07T07:28:26.102Z,7.56
2024-02-07T07:30:57.010Z,7.63
2024-02-07T07:33:25.470Z,7.66
2024-02-07T07:35:54.156Z,7.77
2024-02-07T07:38:22.742Z,7.87
2024-02-07T07:40:51.264Z,7.87
2024-02-07T07:43:20.051Z,7.95
2024-02-07T07:45:48.487Z,8.06
2024-02-07T07:48:22.356Z,8.41
2024-02-07T07:50:53.223Z,8.65
2024-02-07T07:53:21.731Z,8.93
2024-02-07T07:55:50.221Z,9.17
2024-02-07T07:58:18.844Z,9.33
2024-02-07T08:00:50.729Z,9.64
2024-02-07T08:03:20.506Z,9.92
2024-02-07T08:05:49.644Z,10.24
2024-02-07T08:08:18.546Z,10.51
2024-02-07T08:10:48.379Z,10.75
2024-02-07T08:13:17.008Z,10.87
2024-02-07T08:15:45.516Z,10.96
2024-02-07T08:18:13.968Z,10.94
2024-02-07T08:20:42.459Z,11.10
2024-02-07T08:23:11.890Z,11.28
2024-02-07T08:25:40.534Z,11.48
2024-02-07T08:28:08.932Z,11.62
2024-02-07T08:30:37.668Z,11.87
2024-02-07T08:33:07.141Z,11.98
2024-02-07T08:35:35.841Z,12.14
2024-02-07T08:38:04.979Z,12.16
2024-02-07T08:40:33.420Z,12.19
2024-02-07T08:43:06.739Z,12.30
2024-02-07T08:45:39.680Z,12.34
2024-02-07T08:48:09.317Z,12.36
2024-02-07T08:50:38.058Z,12.39
2024-02-07T08:53:06.596Z,12.53
2024-02-07T08:55:35.704Z,12.64
2024-02-07T08:58:04.429Z,12.58
2024-02-07T09:00:32.764Z,12.70
2024-02-07T09:03:01.039Z,12.88
2024-02-07T09:05:30.897Z,13.00
2024-02-07T09:07:59.581Z,13.16
2024-02-07T09:10:28.047Z,13.28
2024-02-07T09:12:57.529Z,13.34
2024-02-07T09:15:26.159Z,13.43
2024-02-07T09:17:54.722Z,13.50
2024-02-07T09:20:23.262Z,13.55
2024-02-07T09:22:51.716Z,13.66
2024-02-07T09:25:20.136Z,13.83
2024-02-07T09:27:48.736Z,13.98
2024-02-07T09:30:17.422Z,14.12
2024-02-07T09:32:47.481Z,14.29
2024-02-07T09:35:16.266Z,14.41
2024-02-07T09:37:44.851Z,14.49
2024-02-07T09:40:14.034Z,14.61
2024-02-07T09:42:45.411Z,14.68
2024-02-07T09:45:17.630Z,14.69
2024-02-07T09:48:08.294Z,14.79
2024-02-07T09:50:37.869Z,14.99
2024-02-07T09:53:09.660Z,15.14
2024-02-07T09:55:38.558Z,15.14
2024-02-07T09:58:10.648Z,15.12
2024-02-07T10:00:39.144Z,15.17
2024-02-07T10:03:11.561Z,15.26
2024-02-07T10:05:45.722Z,15.34
2024-02-07T10:08:14.540Z,15.44
2024-02-07T10:10:49.322Z,15.53
2024-02-07T10:13:19.012Z,15.53
2024-02-07T10:15:49.916Z,15.55
2024-02-07T10:18:18.575Z,15.51
2024-02-07T10:20:56.780Z,15.56
2024-02-07T10:23:25.408Z,15.56
2024-02-07T10:25:55.397Z,15.58
2024-02-07T10:28:28.129Z,15.66
2024-02-07T10:31:06.288Z,15.79
2024-02-07T10:36:10.009Z,16.00
2024-02-07T10:38:38.712Z,16.03
2024-02-07T10:41:07.448Z,15.99
2024-02-07T10:43:41.841Z,16.07
2024-02-07T10:46:15.961Z,16.22
2024-02-07T10:48:45.963Z,16.36
2024-02-07T10:51:15.212Z,16.46
2024-02-07T10:53:43.752Z,16.48
2024-02-07T10:56:19.325Z,16.52
2024-02-07T10:58:49.884Z,16.66
2024-02-07T11:01:20.253Z,16.87
2024-02-07T11:03:49.053Z,16.94
2024-02-07T11:06:17.873Z,16.98
2024-02-07T11:08:47.871Z,17.06
2024-02-07T11:11:16.749Z,17.21
2024-02-07T11:13:47.243Z,17.37
2024-02-07T11:16:15.920Z,17.50
2024-02-07T11:18:44.752Z,17.68
2024-02-07T11:21:19.025Z,17.94
2024-02-07T11:23:50.003Z,18.14
2024-02-07T11:26:19.344Z,18.34
2024-02-07T11:28:49.087Z,18.42
2024-02-07T11:31:20.779Z,18.44
2024-02-07T11:33:53.847Z,18.53
2024-02-07T11:36:22.792Z,18.59
2024-02-07T11:38:59.818Z,18.67
2024-02-07T11:41:29.327Z,18.71
2024-02-07T11:44:08.149Z,18.81
2024-02-07T11:46:49.497Z,19.05
2024-02-07T11:49:21.969Z,19.21
2024-02-07T11:52:00.781Z,19.32
2024-02-07T11:54:35.557Z,19.44
2024-02-07T11:57:04.341Z,19.64
2024-02-07T11:59:34.494Z,19.75
2024-02-07T12:02:04.026Z,19.91
2024-02-07T12:04:40.787Z,19.96
2024-02-07T12:07:10.448Z,20.28
2024-02-07T12:09:39.055Z,20.38
2024-02-07T12:12:14.298Z,20.56
2024-02-07T12:14:43.192Z,20.70
2024-02-07T12:17:12.217Z,20.52
2024-02-07T12:19:45.876Z,20.02
2024-02-07T12:22:21.051Z,20.14
2024-02-07T12:24:52.381Z,20.36
2024-02-07T12:27:24.994Z,20.61
2024-02-07T12:29:56.882Z,20.75
2024-02-07T12:32:26.409Z,20.88
2024-02-07T12:34:56.352Z,20.67
2024-02-07T12:37:24.949Z,20.60
2024-02-07T12:39:53.512Z,20.47
2024-02-07T12:42:23.272Z,20.50
2024-02-07T12:44:52.167Z,20.73
2024-02-07T12:47:22.591Z,20.95
2024-02-07T12:49:52.689Z,21.11
2024-02-07T12:52:22.495Z,21.32
2024-02-07T12:54:51.887Z,21.47
2024-02-07T12:57:24.986Z,21.47
2024-02-07T12:59:54.688Z,21.49
2024-02-07T13:02:23.207Z,21.48
2024-02-07T13:04:52.031Z,21.44
2024-02-07T13:07:21.752Z,21.49
2024-02-07T13:09:50.357Z,21.50
2024-02-07T13:12:26.930Z,21.22
2024-02-07T13:15:00.424Z,21.08
2024-02-07T13:17:29.127Z,21.01
2024-02-07T13:19:57.783Z,21.20
2024-02-07T13:22:26.446Z,21.22
2024-02-07T13:24:55.246Z,21.22
2024-02-07T13:27:23.683Z,21.19
2024-02-07T13:29:52.277Z,21.22
2024-02-07T13:32:23.646Z,21.02
2024-02-07T13:34:52.636Z,21.24
2024-02-07T13:37:21.092Z,21.25
2024-02-07T13:39:49.552Z,21.08
2024-02-07T13:42:20.761Z,21.39
2024-02-07T13:44:50.550Z,21.55
2024-02-07T13:47:20.318Z,21.68
2024-02-07T13:49:49.127Z,21.52
2024-02-07T13:52:17.822Z,21.35
2024-02-07T13:54:46.234Z,21.43
2024-02-07T13:57:14.768Z,21.35
2024-02-07T13:59:43.253Z,21.14
2024-02-07T14:02:11.779Z,20.60
2024-02-07T14:04:40.402Z,20.23
2024-02-07T14:07:09.051Z,19.92
2024-02-07T14:09:37.555Z,19.73
2024-02-07T14:12:07.211Z,19.67
2024-02-07T14:14:36.510Z,19.64
2024-02-07T14:17:05.058Z,19.27
2024-02-07T14:19:33.803Z,18.97
2024-02-07T14:22:04.510Z,18.78
2024-02-07T14:24:34.795Z,18.61
2024-02-07T14:27:03.487Z,18.39
2024-02-07T14:29:31.908Z,18.33
2024-02-07T14:32:00.614Z,18.18
2024-02-07T14:34:29.458Z,17.93
2024-02-07T14:36:58.266Z,17.76
2024-02-07T14:39:29.806Z,17.55
2024-02-07T14:41:58.293Z,17.37
2024-02-07T14:44:26.702Z,17.26
2024-02-07T14:46:55.213Z,17.13
2024-02-07T14:49:24.903Z,16.83
2024-02-07T14:51:53.451Z,16.76
2024-02-07T14:54:22.247Z,16.71
2024-02-07T14:56:52.158Z,16.50
2024-02-07T14:59:21.269Z,16.28
2024-02-07T15:01:49.854Z,15.99
2024-02-07T15:04:18.414Z,15.77
2024-02-07T15:06:47.053Z,15.47
2024-02-07T15:09:16.569Z,15.24
2024-02-07T15:11:44.910Z,15.10
2024-02-07T15:14:13.289Z,14.90
2024-02-07T15:16:42.201Z,14.65
2024-02-07T15:19:10.696Z,14.49
2024-02-07T15:21:42.532Z,14.40
2024-02-07T15:24:11.403Z,14.25
2024-02-07T15:26:39.781Z,14.15
2024-02-07T15:29:08.248Z,14.04
2024-02-07T15:31:36.699Z,13.91
2024-02-07T15:34:05.248Z,13.76
2024-02-07T15:36:33.637Z,13.61
2024-02-07T15:39:02.221Z,13.49
2024-02-07T15:41:31.085Z,13.43
2024-02-07T15:43:59.534Z,13.38
2024-02-07T15:46:28.069Z,13.32
2024-02-07T15:49:06.330Z,13.28
2024-02-07T15:51:37.723Z,13.25
2024-02-07T15:54:06.203Z,13.21
2024-02-07T15:56:34.584Z,13.17
2024-02-07T15:59:03.177Z,13.11
2024-02-07T16:01:37.503Z,13.03
2024-02-07T16:04:14.669Z,12.91
2024-02-07T16:06:43.176Z,12.86
2024-02-07T16:09:13.669Z,12.88
2024-02-07T16:11:41.953Z,12.87
2024-02-07T16:14:12.500Z,12.84
2024-02-07T16:16:46.326Z,12.78
2024-02-07T16:19:14.901Z,12.71
2024-02-07T16:21:43.254Z,12.68
2024-02-07T16:24:11.651Z,12.67
2024-02-07T16:26:40.168Z,12.64
2024-02-07T16:29:08.525Z,12.60
2024-02-07T16:31:37.034Z,12.55
2024-02-07T16:34:05.592Z,12.54
2024-02-07T16:36:34.134Z,12.51
2024-02-07T16:39:02.833Z,12.47
2024-02-07T16:41:31.219Z,12.45
2024-02-07T16:43:59.508Z,12.43
2024-02-07T16:46:27.756Z,12.39
2024-02-07T16:48:56.190Z,12.38
2024-02-07T16:51:24.844Z,12.35
2024-02-07T16:53:54.176Z,12.33
2024-02-07T16:56:22.523Z,12.30
2024-02-07T16:58:51.334Z,12.27
2024-02-07T17:01:29.256Z,12.21
2024-02-07T17:03:57.823Z,12.15
2024-02-07T17:06:26.307Z,12.09
2024-02-07T17:08:54.759Z,12.03
2024-02-07T17:11:23.318Z,11.99
2024-02-07T17:13:52.140Z,11.94
2024-02-07T17:16:21.590Z,11.90
2024-02-07T17:18:50.353Z,11.85
2024-02-07T17:21:18.988Z,11.84
2024-02-07T17:23:47.727Z,11.82
2024-02-07T17:26:16.378Z,11.80
2024-02-07T17:28:45.322Z,11.72
2024-02-07T17:31:13.855Z,11.62
2024-02-07T17:33:42.503Z,11.51
2024-02-07T17:36:12.460Z,11.39
2024-02-07T17:38:44.066Z,11.26
2024-02-07T17:41:13.364Z,11.15
2024-02-07T17:43:42.857Z,11.04
2024-02-07T17:46:11.518Z,10.97
2024-02-07T17:48:40.963Z,10.90
2024-02-07T17:51:09.613Z,10.81
2024-02-07T17:53:38.123Z,10.76
2024-02-07T17:56:07.513Z,10.73
2024-02-07T17:58:36.247Z,10.73
2024-02-07T18:01:05.286Z,10.72
2024-02-07T18:03:35.085Z,10.71
2024-02-07T18:06:04.629Z,10.65
2024-02-07T18:08:33.300Z,10.63
2024-02-07T18:11:02.019Z,10.58
2024-02-07T18:13:30.756Z,10.55
2024-02-07T18:15:59.335Z,10.50
2024-02-07T18:18:27.927Z,10.44
2024-02-07T18:20:56.421Z,10.37
2024-02-07T18:23:27.360Z,10.31
2024-02-07T18:25:57.076Z,10.25
2024-02-07T18:28:25.621Z,10.21
2024-02-07T18:30:54.118Z,10.17
2024-02-07T18:33:22.911Z,10.18
2024-02-07T18:35:52.838Z,10.17
2024-02-07T18:38:21.254Z,10.17
2024-02-07T18:40:49.698Z,10.14
2024-02-07T18:43:18.191Z,10.14
2024-02-07T18:45:46.745Z,10.11
2024-02-07T18:48:17.178Z,10.09
2024-02-07T18:50:46.895Z,10.06
2024-02-07T18:53:19.427Z,10.02
2024-02-07T18:55:49.673Z,9.98
2024-02-07T18:58:23.631Z,9.95
2024-02-07T19:00:52.396Z,9.91
2024-02-07T19:03:21.480Z,9.87
2024-02-07T19:05:50.251Z,9.83
2024-02-07T19:08:19.344Z,9.75
2024-02-07T19:10:47.959Z,9.68
2024-02-07T19:13:17.569Z,9.58
2024-02-07T19:15:46.036Z,9.50
2024-02-07T19:18:14.637Z,9.42
2024-02-07T19:20:43.492Z,9.39
2024-02-07T19:23:12.238Z,9.39
2024-02-07T19:25:40.736Z,9.36
2024-02-07T19:28:09.367Z,9.33
2024-02-07T19:30:38.155Z,9.32
2024-02-07T19:33:06.952Z,9.30
2024-02-07T19:35:35.808Z,9.27
2024-02-07T19:38:04.856Z,9.22
2024-02-07T19:40:33.442Z,9.21
2024-02-07T19:43:03.443Z,9.20
2024-02-07T19:45:32.024Z,9.21
2024-02-07T19:48:00.508Z,9.19
2024-02-07T19:50:29.250Z,9.14
2024-02-07T19:52:57.940Z,9.12
2024-02-07T19:55:26.801Z,9.08
2024-02-07T19:57:55.492Z,9.03
2024-02-07T20:00:24.056Z,9.01
2024-02-07T20:02:52.533Z,8.98
2024-02-07T20:05:22.678Z,8.97
2024-02-07T20:07:51.790Z,8.96
2024-02-07T20:10:20.607Z,8.93
2024-02-07T20:12:49.053Z,8.91
2024-02-07T20:15:17.927Z,8.86
2024-02-07T20:17:47.243Z,8.84
2024-02-07T20:20:16.210Z,8.80
2024-02-07T20:22:44.907Z,8.77
2024-02-07T20:25:13.675Z,8.76
2024-02-07T20:27:42.364Z,8.77
2024-02-07T20:30:11.250Z,8.78
2024-02-07T20:32:39.797Z,8.78
2024-02-07T20:35:09.814Z,8.74
2024-02-07T20:37:38.401Z,8.72
2024-02-07T20:40:07.682Z,8.70
2024-02-07T20:42:36.377Z,8.66
2024-02-07T20:45:05.835Z,8.62
2024-02-07T20:47:37.299Z,8.60
2024-02-07T20:50:06.925Z,8.62
2024-02-07T20:52:35.496Z,8.64
2024-02-07T20:55:06.012Z,8.65
2024-02-07T20:57:38.077Z,8.65
2024-02-07T21:00:07.615Z,8.64
2024-02-07T21:02:36.705Z,8.61
2024-02-07T21:05:05.688Z,8.56
2024-02-07T21:07:34.570Z,8.49
2024-02-07T21:10:03.438Z,8.41
2024-02-07T21:12:31.796Z,8.36
2024-02-07T21:15:00.320Z,8.29
2024-02-07T21:17:29.785Z,8.19
2024-02-07T21:19:58.585Z,8.11
2024-02-07T21:22:27.431Z,8.00
2024-02-07T21:24:56.000Z,7.93
2024-02-07T21:27:24.678Z,7.89
2024-02-07T21:29:54.648Z,7.86
2024-02-07T21:32:23.492Z,7.81
2024-02-07T21:34:52.168Z,7.75
2024-02-07T21:37:20.801Z,7.69
2024-02-07T21:39:49.451Z,7.64
2024-02-07T21:42:17.950Z,7.60
2024-02-07T21:44:46.381Z,7.56
2024-02-07T21:47:15.058Z,7.51
2024-02-07T21:49:43.645Z,7.46
2024-02-07T21:52:12.060Z,7.41
2024-02-07T21:54:40.602Z,7.35
2024-02-07T21:57:09.206Z,7.28
2024-02-07T21:59:38.062Z,7.20
2024-02-07T22:02:07.260Z,7.10
2024-02-07T22:04:36.008Z,6.99
2024-02-07T22:07:05.573Z,6.88
2024-02-07T22:09:34.071Z,6.77
2024-02-07T22:12:05.841Z,6.67
2024-02-07T22:14:36.798Z,6.58
2024-02-07T22:17:05.967Z,6.49
2024-02-07T22:19:34.598Z,6.41
2024-02-07T22:22:03.585Z,6.34
2024-02-07T22:24:31.984Z,6.24
2024-02-07T22:27:00.484Z,6.14
2024-02-07T22:29:29.026Z,6.04
2024-02-07T22:31:57.558Z,5.97
2024-02-07T22:34:26.295Z,5.91
2024-02-07T22:36:54.776Z,5.87
2024-02-07T22:39:23.354Z,5.84
2024-02-07T22:41:51.947Z,5.81
2024-02-07T22:44:20.474Z,5.79
2024-02-07T22:46:52.247Z,5.83
2024-02-07T22:49:20.919Z,5.94
2024-02-07T22:51:52.155Z,6.09
2024-02-07T22:54:22.149Z,6.24
2024-02-07T22:56:50.665Z,6.33
2024-02-07T22:59:19.201Z,6.40
2024-02-07T23:01:47.853Z,6.45
2024-02-07T23:04:16.591Z,6.47
2024-02-07T23:06:46.664Z,6.48
2024-02-07T23:09:15.466Z,6.48
2024-02-07T23:11:43.988Z,6.50
2024-02-07T23:14:12.752Z,6.50
2024-02-07T23:16:41.893Z,6.51
2024-02-07T23:19:10.773Z,6.49
2024-02-07T23:21:39.336Z,6.46
2024-02-07T23:24:08.213Z,6.41
2024-02-07T23:26:36.912Z,6.34
2024-02-07T23:29:05.619Z,6.27
2024-02-07T23:31:34.200Z,6.19
2024-02-07T23:34:02.832Z,6.10
2024-02-07T23:36:31.668Z,6.02
2024-02-07T23:39:00.250Z,5.97
2024-02-07T23:41:29.002Z,5.94
2024-02-07T23:43:57.670Z,5.97
2024-02-07T23:46:26.245Z,6.00
2024-02-07T23:48:54.937Z,6.06
2024-02-07T23:51:23.485Z,6.11
2024-02-07T23:53:53.496Z,6.15
2024-02-07T23:56:22.087Z,6.17
2024-02-07T23:58:50.691Z,6.16
